Sayler Park, Ohio
Current Conditions -  °F | °C
As of 11:18 PM on Sunday 23 Nov 2014 (Local Time) from KI69 Reporting Station
Moderate Rain Moderate Rain  
Wind Chill: 59°   Ceiling: 3700
Heat Index: 59°   Visibility: 10mi
Dew Point: 55°   Wind: 13mph
Humidity: 88%   Direction: 180°S
Pressure: 29.31"   Gusts: 21mph
Location:  39.1192°N, 84.6634°W
Report Text: KI69 240418Z AUTO 18011G18KT 10SM RA SCT017 SCT031 OVC037 15/13 A2931 RMK AO1 P0001
Loading
Personal Weather Stations






























Interactive Weather Map New forecast layout! Learn more

10-Day Weather Forecast

Advertisements
Track Severe Weather on mobile